sensor_id;sensor_type;location;lat;lon;timestamp;P1;durP1;ratioP1;P2;durP2;ratioP2
77322;SDS011;66384;51.052;9.850;2023-08-17T00:00:12;2.10;;;1.30;;
77322;SDS011;66384;51.052;9.850;2023-08-17T00:03:07;1.30;;;1.00;;
77322;SDS011;66384;51.052;9.850;2023-08-17T00:05:39;3.90;;;1.40;;
77322;SDS011;66384;51.052;9.850;2023-08-17T00:08:11;4.10;;;2.40;;
77322;SDS011;66384;51.052;9.850;2023-08-17T00:10:42;1.50;;;1.20;;
77322;SDS011;66384;51.052;9.850;2023-08-17T00:13:14;1.40;;;0.90;;
77322;SDS011;66384;51.052;9.850;2023-08-17T00:15:45;2.60;;;1.10;;
77322;SDS011;66384;51.052;9.850;2023-08-17T00:18:17;2.10;;;1.30;;
77322;SDS011;66384;51.052;9.850;2023-08-17T00:20:48;2.30;;;1.00;;
77322;SDS011;66384;51.052;9.850;2023-08-17T00:23:20;1.80;;;1.30;;
77322;SDS011;66384;51.052;9.850;2023-08-17T00:25:52;2.70;;;1.20;;
77322;SDS011;66384;51.052;9.850;2023-08-17T00:28:23;1.30;;;1.20;;
77322;SDS011;66384;51.052;9.850;2023-08-17T00:30:55;1.90;;;1.20;;
77322;SDS011;66384;51.052;9.850;2023-08-17T00:33:26;1.00;;;0.90;;
77322;SDS011;66384;51.052;9.850;2023-08-17T00:35:58;1.50;;;1.00;;
77322;SDS011;66384;51.052;9.850;2023-08-17T00:38:30;2.10;;;1.20;;
77322;SDS011;66384;51.052;9.850;2023-08-17T00:41:01;1.70;;;1.10;;
77322;SDS011;66384;51.052;9.850;2023-08-17T00:43:33;2.40;;;0.90;;
77322;SDS011;66384;51.052;9.850;2023-08-17T00:46:04;1.40;;;1.10;;
77322;SDS011;66384;51.052;9.850;2023-08-17T00:48:36;3.20;;;1.30;;
77322;SDS011;66384;51.052;9.850;2023-08-17T00:51:07;2.30;;;1.40;;
77322;SDS011;66384;51.052;9.850;2023-08-17T00:53:39;1.70;;;1.10;;
77322;SDS011;66384;51.052;9.850;2023-08-17T00:56:11;1.70;;;1.20;;
77322;SDS011;66384;51.052;9.850;2023-08-17T00:58:43;2.10;;;1.20;;
77322;SDS011;66384;51.052;9.850;2023-08-17T01:01:14;2.70;;;1.10;;
77322;SDS011;66384;51.052;9.850;2023-08-17T01:03:46;2.50;;;1.20;;
77322;SDS011;66384;51.052;9.850;2023-08-17T01:06:19;1.90;;;1.30;;
77322;SDS011;66384;51.052;9.850;2023-08-17T01:08:50;4.30;;;1.20;;
77322;SDS011;66384;51.052;9.850;2023-08-17T01:11:25;1.80;;;1.30;;
77322;SDS011;66384;51.052;9.850;2023-08-17T01:14:02;2.10;;;1.10;;
77322;SDS011;66384;51.052;9.850;2023-08-17T01:16:40;3.30;;;1.40;;
77322;SDS011;66384;51.052;9.850;2023-08-17T01:19:19;2.10;;;1.20;;
77322;SDS011;66384;51.052;9.850;2023-08-17T01:21:57;1.70;;;0.90;;
77322;SDS011;66384;51.052;9.850;2023-08-17T01:24:33;2.60;;;1.10;;
77322;SDS011;66384;51.052;9.850;2023-08-17T01:27:05;1.80;;;1.40;;
77322;SDS011;66384;51.052;9.850;2023-08-17T01:29:36;1.50;;;1.10;;
77322;SDS011;66384;51.052;9.850;2023-08-17T01:32:10;2.60;;;1.20;;
77322;SDS011;66384;51.052;9.850;2023-08-17T01:34:50;1.30;;;1.10;;
77322;SDS011;66384;51.052;9.850;2023-08-17T01:37:24;1.90;;;1.00;;
77322;SDS011;66384;51.052;9.850;2023-08-17T01:39:58;5.00;;;1.40;;
77322;SDS011;66384;51.052;9.850;2023-08-17T01:42:30;1.40;;;1.20;;
77322;SDS011;66384;51.052;9.850;2023-08-17T01:45:03;1.50;;;1.10;;
77322;SDS011;66384;51.052;9.850;2023-08-17T01:47:36;2.10;;;1.20;;
77322;SDS011;66384;51.052;9.850;2023-08-17T01:50:08;4.20;;;1.50;;
77322;SDS011;66384;51.052;9.850;2023-08-17T01:52:40;2.20;;;1.40;;
77322;SDS011;66384;51.052;9.850;2023-08-17T01:55:12;3.80;;;1.50;;
77322;SDS011;66384;51.052;9.850;2023-08-17T01:57:43;2.50;;;1.50;;
77322;SDS011;66384;51.052;9.850;2023-08-17T02:00:15;1.50;;;1.20;;
77322;SDS011;66384;51.052;9.850;2023-08-17T02:02:47;2.30;;;1.40;;
77322;SDS011;66384;51.052;9.850;2023-08-17T02:05:19;7.20;;;1.80;;
77322;SDS011;66384;51.052;9.850;2023-08-17T02:07:50;2.10;;;1.20;;
77322;SDS011;66384;51.052;9.850;2023-08-17T02:10:22;2.50;;;1.10;;
77322;SDS011;66384;51.052;9.850;2023-08-17T02:12:53;3.20;;;1.50;;
77322;SDS011;66384;51.052;9.850;2023-08-17T02:15:33;1.80;;;1.20;;
77322;SDS011;66384;51.052;9.850;2023-08-17T02:18:09;2.70;;;1.20;;
77322;SDS011;66384;51.052;9.850;2023-08-17T02:20:40;5.30;;;1.40;;
77322;SDS011;66384;51.052;9.850;2023-08-17T02:23:12;2.00;;;1.40;;
77322;SDS011;66384;51.052;9.850;2023-08-17T02:25:43;2.10;;;1.40;;
77322;SDS011;66384;51.052;9.850;2023-08-17T02:28:15;2.90;;;1.40;;
77322;SDS011;66384;51.052;9.850;2023-08-17T02:30:46;3.80;;;1.40;;
77322;SDS011;66384;51.052;9.850;2023-08-17T02:33:18;2.40;;;1.50;;
77322;SDS011;66384;51.052;9.850;2023-08-17T02:35:51;2.40;;;1.40;;
77322;SDS011;66384;51.052;9.850;2023-08-17T02:38:22;2.60;;;1.20;;
77322;SDS011;66384;51.052;9.850;2023-08-17T02:40:54;1.60;;;1.50;;
77322;SDS011;66384;51.052;9.850;2023-08-17T02:43:25;3.40;;;2.00;;
77322;SDS011;66384;51.052;9.850;2023-08-17T02:45:57;3.50;;;1.70;;
77322;SDS011;66384;51.052;9.850;2023-08-17T02:48:29;3.10;;;1.40;;
77322;SDS011;66384;51.052;9.850;2023-08-17T02:51:01;3.50;;;1.50;;
77322;SDS011;66384;51.052;9.850;2023-08-17T02:53:33;3.50;;;1.60;;
77322;SDS011;66384;51.052;9.850;2023-08-17T02:56:04;6.30;;;1.50;;
77322;SDS011;66384;51.052;9.850;2023-08-17T02:58:39;5.60;;;1.50;;
77322;SDS011;66384;51.052;9.850;2023-08-17T03:01:11;4.50;;;2.00;;
77322;SDS011;66384;51.052;9.850;2023-08-17T03:03:42;2.10;;;1.50;;
77322;SDS011;66384;51.052;9.850;2023-08-17T03:06:14;2.10;;;1.40;;
77322;SDS011;66384;51.052;9.850;2023-08-17T03:08:45;1.90;;;1.30;;
77322;SDS011;66384;51.052;9.850;2023-08-17T03:11:17;2.10;;;1.40;;
77322;SDS011;66384;51.052;9.850;2023-08-17T03:13:50;2.80;;;2.20;;
77322;SDS011;66384;51.052;9.850;2023-08-17T03:16:28;1.30;;;1.20;;
77322;SDS011;66384;51.052;9.850;2023-08-17T03:19:00;1.60;;;1.40;;
77322;SDS011;66384;51.052;9.850;2023-08-17T03:21:32;2.00;;;1.40;;
77322;SDS011;66384;51.052;9.850;2023-08-17T03:24:05;3.90;;;1.60;;
77322;SDS011;66384;51.052;9.850;2023-08-17T03:26:37;2.50;;;1.70;;
77322;SDS011;66384;51.052;9.850;2023-08-17T03:29:08;3.40;;;1.50;;
77322;SDS011;66384;51.052;9.850;2023-08-17T03:31:40;4.30;;;2.20;;
77322;SDS011;66384;51.052;9.850;2023-08-17T03:34:11;2.90;;;1.70;;
77322;SDS011;66384;51.052;9.850;2023-08-17T03:36:43;3.10;;;1.40;;
77322;SDS011;66384;51.052;9.850;2023-08-17T03:39:14;2.70;;;1.60;;
77322;SDS011;66384;51.052;9.850;2023-08-17T03:41:46;2.70;;;1.60;;
77322;SDS011;66384;51.052;9.850;2023-08-17T03:44:17;3.70;;;1.80;;
77322;SDS011;66384;51.052;9.850;2023-08-17T03:46:49;2.80;;;1.90;;
77322;SDS011;66384;51.052;9.850;2023-08-17T03:49:20;4.60;;;2.10;;
77322;SDS011;66384;51.052;9.850;2023-08-17T03:51:52;4.10;;;2.40;;
77322;SDS011;66384;51.052;9.850;2023-08-17T03:54:23;2.40;;;2.10;;
77322;SDS011;66384;51.052;9.850;2023-08-17T03:56:55;6.00;;;2.60;;
77322;SDS011;66384;51.052;9.850;2023-08-17T03:59:26;3.30;;;2.40;;
77322;SDS011;66384;51.052;9.850;2023-08-17T04:01:58;4.30;;;2.20;;
77322;SDS011;66384;51.052;9.850;2023-08-17T04:04:30;3.80;;;2.20;;
77322;SDS011;66384;51.052;9.850;2023-08-17T04:07:02;2.50;;;2.10;;
77322;SDS011;66384;51.052;9.850;2023-08-17T04:09:35;3.40;;;2.10;;
77322;SDS011;66384;51.052;9.850;2023-08-17T04:12:08;2.80;;;2.20;;
77322;SDS011;66384;51.052;9.850;2023-08-17T04:14:39;2.60;;;2.30;;
77322;SDS011;66384;51.052;9.850;2023-08-17T04:17:11;3.60;;;2.40;;
77322;SDS011;66384;51.052;9.850;2023-08-17T04:19:42;3.10;;;2.30;;
77322;SDS011;66384;51.052;9.850;2023-08-17T04:22:14;4.80;;;2.40;;
77322;SDS011;66384;51.052;9.850;2023-08-17T04:24:45;2.80;;;2.30;;
77322;SDS011;66384;51.052;9.850;2023-08-17T04:27:17;5.00;;;3.20;;
77322;SDS011;66384;51.052;9.850;2023-08-17T04:29:48;2.60;;;2.00;;
77322;SDS011;66384;51.052;9.850;2023-08-17T04:32:20;4.10;;;2.50;;
77322;SDS011;66384;51.052;9.850;2023-08-17T04:34:52;3.70;;;2.20;;
77322;SDS011;66384;51.052;9.850;2023-08-17T04:37:23;3.40;;;1.80;;
77322;SDS011;66384;51.052;9.850;2023-08-17T04:39:56;5.00;;;2.20;;
77322;SDS011;66384;51.052;9.850;2023-08-17T04:42:27;3.30;;;1.80;;
77322;SDS011;66384;51.052;9.850;2023-08-17T04:44:58;2.70;;;2.10;;
77322;SDS011;66384;51.052;9.850;2023-08-17T04:47:30;2.50;;;1.80;;
77322;SDS011;66384;51.052;9.850;2023-08-17T04:50:02;2.30;;;1.90;;
77322;SDS011;66384;51.052;9.850;2023-08-17T04:52:34;4.20;;;2.30;;
77322;SDS011;66384;51.052;9.850;2023-08-17T04:55:06;4.00;;;2.40;;
77322;SDS011;66384;51.052;9.850;2023-08-17T04:57:38;4.70;;;2.80;;
77322;SDS011;66384;51.052;9.850;2023-08-17T05:00:10;3.90;;;3.10;;
77322;SDS011;66384;51.052;9.850;2023-08-17T05:02:43;4.00;;;2.80;;
77322;SDS011;66384;51.052;9.850;2023-08-17T05:05:15;4.00;;;3.40;;
77322;SDS011;66384;51.052;9.850;2023-08-17T05:07:46;5.30;;;3.90;;
77322;SDS011;66384;51.052;9.850;2023-08-17T05:10:18;4.80;;;4.20;;
77322;SDS011;66384;51.052;9.850;2023-08-17T05:12:50;7.90;;;5.00;;
77322;SDS011;66384;51.052;9.850;2023-08-17T05:15:22;7.90;;;4.50;;
77322;SDS011;66384;51.052;9.850;2023-08-17T05:17:53;4.80;;;4.20;;
77322;SDS011;66384;51.052;9.850;2023-08-17T05:20:25;6.40;;;4.90;;
77322;SDS011;66384;51.052;9.850;2023-08-17T05:22:56;5.90;;;3.80;;
77322;SDS011;66384;51.052;9.850;2023-08-17T05:25:28;4.20;;;3.60;;
77322;SDS011;66384;51.052;9.850;2023-08-17T05:27:59;4.40;;;3.30;;
77322;SDS011;66384;51.052;9.850;2023-08-17T05:30:31;4.20;;;3.40;;
77322;SDS011;66384;51.052;9.850;2023-08-17T05:33:04;4.80;;;3.60;;
77322;SDS011;66384;51.052;9.850;2023-08-17T05:35:35;5.00;;;3.10;;
77322;SDS011;66384;51.052;9.850;2023-08-17T05:38:07;3.70;;;3.30;;
77322;SDS011;66384;51.052;9.850;2023-08-17T05:40:39;5.90;;;3.50;;
77322;SDS011;66384;51.052;9.850;2023-08-17T05:43:10;4.10;;;3.00;;
77322;SDS011;66384;51.052;9.850;2023-08-17T05:45:42;4.70;;;3.40;;
77322;SDS011;66384;51.052;9.850;2023-08-17T05:48:13;4.00;;;3.10;;
77322;SDS011;66384;51.052;9.850;2023-08-17T05:50:45;3.50;;;3.10;;
77322;SDS011;66384;51.052;9.850;2023-08-17T05:53:16;5.10;;;3.30;;
77322;SDS011;66384;51.052;9.850;2023-08-17T05:55:48;4.20;;;2.90;;
77322;SDS011;66384;51.052;9.850;2023-08-17T05:58:19;4.80;;;3.20;;
77322;SDS011;66384;51.052;9.850;2023-08-17T06:00:51;3.60;;;2.90;;
77322;SDS011;66384;51.052;9.850;2023-08-17T06:03:22;3.30;;;3.00;;
77322;SDS011;66384;51.052;9.850;2023-08-17T06:05:54;6.60;;;3.20;;
77322;SDS011;66384;51.052;9.850;2023-08-17T06:08:25;5.50;;;3.10;;
77322;SDS011;66384;51.052;9.850;2023-08-17T06:10:58;3.90;;;3.10;;
77322;SDS011;66384;51.052;9.850;2023-08-17T06:13:29;4.10;;;3.10;;
77322;SDS011;66384;51.052;9.850;2023-08-17T06:16:01;4.40;;;2.70;;
77322;SDS011;66384;51.052;9.850;2023-08-17T06:18:33;3.40;;;2.60;;
77322;SDS011;66384;51.052;9.850;2023-08-17T06:21:04;2.90;;;2.50;;
77322;SDS011;66384;51.052;9.850;2023-08-17T06:23:35;3.10;;;2.40;;
77322;SDS011;66384;51.052;9.850;2023-08-17T06:26:07;4.20;;;2.30;;
77322;SDS011;66384;51.052;9.850;2023-08-17T06:28:39;3.40;;;2.40;;
77322;SDS011;66384;51.052;9.850;2023-08-17T06:31:10;3.50;;;2.40;;
77322;SDS011;66384;51.052;9.850;2023-08-17T06:33:46;6.90;;;2.70;;
77322;SDS011;66384;51.052;9.850;2023-08-17T06:36:17;8.50;;;2.50;;
77322;SDS011;66384;51.052;9.850;2023-08-17T06:38:49;4.20;;;2.80;;
77322;SDS011;66384;51.052;9.850;2023-08-17T06:41:21;3.80;;;2.60;;
77322;SDS011;66384;51.052;9.850;2023-08-17T06:43:53;4.00;;;2.50;;
77322;SDS011;66384;51.052;9.850;2023-08-17T06:46:24;4.00;;;2.80;;
77322;SDS011;66384;51.052;9.850;2023-08-17T06:48:57;3.20;;;2.70;;
77322;SDS011;66384;51.052;9.850;2023-08-17T06:51:28;3.60;;;2.50;;
77322;SDS011;66384;51.052;9.850;2023-08-17T06:54:00;4.30;;;1.90;;
77322;SDS011;66384;51.052;9.850;2023-08-17T06:56:31;3.00;;;2.30;;
77322;SDS011;66384;51.052;9.850;2023-08-17T06:59:03;2.70;;;2.30;;
77322;SDS011;66384;51.052;9.850;2023-08-17T07:01:35;3.70;;;2.20;;
77322;SDS011;66384;51.052;9.850;2023-08-17T07:04:07;3.60;;;2.10;;
77322;SDS011;66384;51.052;9.850;2023-08-17T07:06:38;3.50;;;2.70;;
77322;SDS011;66384;51.052;9.850;2023-08-17T07:09:12;3.70;;;2.60;;
77322;SDS011;66384;51.052;9.850;2023-08-17T07:11:44;3.60;;;2.40;;
77322;SDS011;66384;51.052;9.850;2023-08-17T07:14:15;8.00;;;3.00;;
77322;SDS011;66384;51.052;9.850;2023-08-17T07:16:50;2.90;;;2.20;;
77322;SDS011;66384;51.052;9.850;2023-08-17T07:19:22;3.50;;;2.50;;
77322;SDS011;66384;51.052;9.850;2023-08-17T07:22:14;4.20;;;2.40;;
77322;SDS011;66384;51.052;9.850;2023-08-17T07:24:46;2.60;;;2.30;;
77322;SDS011;66384;51.052;9.850;2023-08-17T07:27:17;4.30;;;2.20;;
77322;SDS011;66384;51.052;9.850;2023-08-17T07:29:49;2.90;;;2.20;;
77322;SDS011;66384;51.052;9.850;2023-08-17T07:32:21;3.00;;;2.50;;
77322;SDS011;66384;51.052;9.850;2023-08-17T07:34:54;3.40;;;2.00;;
77322;SDS011;66384;51.052;9.850;2023-08-17T07:37:25;3.50;;;2.10;;
77322;SDS011;66384;51.052;9.850;2023-08-17T07:40:02;11.20;;;7.50;;
77322;SDS011;66384;51.052;9.850;2023-08-17T07:42:34;6.80;;;4.00;;
77322;SDS011;66384;51.052;9.850;2023-08-17T07:45:07;3.00;;;2.40;;
77322;SDS011;66384;51.052;9.850;2023-08-17T07:47:39;5.40;;;3.10;;
77322;SDS011;66384;51.052;9.850;2023-08-17T07:50:11;5.00;;;3.10;;
77322;SDS011;66384;51.052;9.850;2023-08-17T07:52:42;4.90;;;3.50;;
77322;SDS011;66384;51.052;9.850;2023-08-17T07:55:14;3.10;;;2.30;;
77322;SDS011;66384;51.052;9.850;2023-08-17T07:57:45;4.10;;;2.80;;
77322;SDS011;66384;51.052;9.850;2023-08-17T08:00:18;2.90;;;2.20;;
77322;SDS011;66384;51.052;9.850;2023-08-17T08:02:49;3.40;;;1.90;;
77322;SDS011;66384;51.052;9.850;2023-08-17T08:05:21;2.70;;;1.80;;
77322;SDS011;66384;51.052;9.850;2023-08-17T08:07:52;3.70;;;2.00;;
77322;SDS011;66384;51.052;9.850;2023-08-17T08:10:24;2.40;;;1.70;;
77322;SDS011;66384;51.052;9.850;2023-08-17T08:12:56;3.30;;;2.40;;
77322;SDS011;66384;51.052;9.850;2023-08-17T08:15:27;3.80;;;2.10;;
77322;SDS011;66384;51.052;9.850;2023-08-17T08:17:59;7.80;;;2.40;;
77322;SDS011;66384;51.052;9.850;2023-08-17T08:20:31;2.90;;;2.10;;
77322;SDS011;66384;51.052;9.850;2023-08-17T08:23:02;3.50;;;2.30;;
77322;SDS011;66384;51.052;9.850;2023-08-17T08:25:34;3.10;;;1.70;;
77322;SDS011;66384;51.052;9.850;2023-08-17T08:28:06;4.00;;;2.50;;
77322;SDS011;66384;51.052;9.850;2023-08-17T08:30:38;3.20;;;2.00;;
77322;SDS011;66384;51.052;9.850;2023-08-17T08:33:09;3.30;;;1.90;;
77322;SDS011;66384;51.052;9.850;2023-08-17T08:35:41;2.80;;;2.00;;
77322;SDS011;66384;51.052;9.850;2023-08-17T08:38:13;3.00;;;2.00;;
77322;SDS011;66384;51.052;9.850;2023-08-17T08:40:45;2.20;;;1.80;;
77322;SDS011;66384;51.052;9.850;2023-08-17T08:43:18;4.80;;;2.30;;
77322;SDS011;66384;51.052;9.850;2023-08-17T08:45:49;3.00;;;2.00;;
77322;SDS011;66384;51.052;9.850;2023-08-17T08:48:23;3.00;;;2.00;;
77322;SDS011;66384;51.052;9.850;2023-08-17T08:51:00;3.00;;;2.00;;
77322;SDS011;66384;51.052;9.850;2023-08-17T08:53:37;3.60;;;2.80;;
77322;SDS011;66384;51.052;9.850;2023-08-17T08:56:13;3.00;;;2.60;;
77322;SDS011;66384;51.052;9.850;2023-08-17T08:58:49;3.40;;;2.40;;
77322;SDS011;66384;51.052;9.850;2023-08-17T09:01:22;2.70;;;2.10;;
77322;SDS011;66384;51.052;9.850;2023-08-17T09:03:55;3.20;;;1.90;;
77322;SDS011;66384;51.052;9.850;2023-08-17T09:06:27;3.80;;;2.60;;
77322;SDS011;66384;51.052;9.850;2023-08-17T09:09:01;5.60;;;2.70;;
77322;SDS011;66384;51.052;9.850;2023-08-17T09:11:32;4.00;;;2.60;;
77322;SDS011;66384;51.052;9.850;2023-08-17T09:14:04;3.00;;;2.70;;
77322;SDS011;66384;51.052;9.850;2023-08-17T09:16:38;2.90;;;2.40;;
77322;SDS011;66384;51.052;9.850;2023-08-17T09:19:10;4.80;;;3.00;;
77322;SDS011;66384;51.052;9.850;2023-08-17T09:21:42;2.80;;;2.20;;
77322;SDS011;66384;51.052;9.850;2023-08-17T09:26:49;2.50;;;2.00;;
77322;SDS011;66384;51.052;9.850;2023-08-17T09:29:23;2.70;;;1.90;;
77322;SDS011;66384;51.052;9.850;2023-08-17T09:31:55;2.80;;;2.30;;
77322;SDS011;66384;51.052;9.850;2023-08-17T09:34:27;3.20;;;2.30;;
77322;SDS011;66384;51.052;9.850;2023-08-17T09:37:05;3.00;;;2.00;;
77322;SDS011;66384;51.052;9.850;2023-08-17T09:39:37;5.30;;;2.00;;
77322;SDS011;66384;51.052;9.850;2023-08-17T09:42:08;3.30;;;2.20;;
77322;SDS011;66384;51.052;9.850;2023-08-17T09:44:40;2.60;;;1.90;;
77322;SDS011;66384;51.052;9.850;2023-08-17T09:47:13;2.90;;;2.30;;
77322;SDS011;66384;51.052;9.850;2023-08-17T09:49:49;3.70;;;2.00;;
77322;SDS011;66384;51.052;9.850;2023-08-17T09:52:22;3.20;;;2.50;;
77322;SDS011;66384;51.052;9.850;2023-08-17T09:54:54;4.20;;;1.90;;
77322;SDS011;66384;51.052;9.850;2023-08-17T09:57:36;3.00;;;2.70;;
77322;SDS011;66384;51.052;9.850;2023-08-17T10:00:10;2.30;;;1.90;;
77322;SDS011;66384;51.052;9.850;2023-08-17T10:02:43;2.40;;;2.00;;
77322;SDS011;66384;51.052;9.850;2023-08-17T10:05:19;3.10;;;2.10;;
77322;SDS011;66384;51.052;9.850;2023-08-17T10:07:53;2.80;;;1.80;;
77322;SDS011;66384;51.052;9.850;2023-08-17T10:10:27;2.60;;;2.10;;
77322;SDS011;66384;51.052;9.850;2023-08-17T10:13:06;4.90;;;2.30;;
77322;SDS011;66384;51.052;9.850;2023-08-17T10:18:16;3.30;;;2.80;;
77322;SDS011;66384;51.052;9.850;2023-08-17T10:20:54;2.80;;;2.40;;
77322;SDS011;66384;51.052;9.850;2023-08-17T10:23:31;2.70;;;2.50;;
77322;SDS011;66384;51.052;9.850;2023-08-17T10:26:10;4.50;;;3.10;;
77322;SDS011;66384;51.052;9.850;2023-08-17T10:28:42;3.60;;;2.60;;
77322;SDS011;66384;51.052;9.850;2023-08-17T10:31:15;2.80;;;2.40;;
77322;SDS011;66384;51.052;9.850;2023-08-17T10:33:48;5.80;;;2.80;;
77322;SDS011;66384;51.052;9.850;2023-08-17T10:36:20;3.30;;;3.00;;
77322;SDS011;66384;51.052;9.850;2023-08-17T10:41:57;5.00;;;4.50;;
77322;SDS011;66384;51.052;9.850;2023-08-17T10:44:38;8.60;;;7.40;;
77322;SDS011;66384;51.052;9.850;2023-08-17T10:47:25;4.20;;;3.50;;
77322;SDS011;66384;51.052;9.850;2023-08-17T10:50:03;4.20;;;3.80;;
77322;SDS011;66384;51.052;9.850;2023-08-17T10:52:37;3.10;;;2.60;;
77322;SDS011;66384;51.052;9.850;2023-08-17T10:55:09;3.60;;;2.80;;
77322;SDS011;66384;51.052;9.850;2023-08-17T10:57:42;5.70;;;2.00;;
77322;SDS011;66384;51.052;9.850;2023-08-17T11:00:18;3.10;;;2.30;;
77322;SDS011;66384;51.052;9.850;2023-08-17T11:02:55;2.50;;;2.20;;
77322;SDS011;66384;51.052;9.850;2023-08-17T11:05:35;1.90;;;1.70;;
77322;SDS011;66384;51.052;9.850;2023-08-17T11:08:12;2.20;;;1.60;;
77322;SDS011;66384;51.052;9.850;2023-08-17T11:10:59;4.90;;;2.60;;
77322;SDS011;66384;51.052;9.850;2023-08-17T11:13:33;2.80;;;2.00;;
77322;SDS011;66384;51.052;9.850;2023-08-17T11:16:06;3.80;;;2.60;;
77322;SDS011;66384;51.052;9.850;2023-08-17T11:18:38;2.70;;;2.10;;
77322;SDS011;66384;51.052;9.850;2023-08-17T11:21:11;3.20;;;2.20;;
77322;SDS011;66384;51.052;9.850;2023-08-17T11:23:48;2.40;;;2.10;;
77322;SDS011;66384;51.052;9.850;2023-08-17T11:26:19;3.70;;;2.10;;
77322;SDS011;66384;51.052;9.850;2023-08-17T11:28:51;2.70;;;2.10;;
77322;SDS011;66384;51.052;9.850;2023-08-17T11:31:23;2.50;;;2.20;;
77322;SDS011;66384;51.052;9.850;2023-08-17T11:33:55;3.50;;;2.20;;
77322;SDS011;66384;51.052;9.850;2023-08-17T11:36:29;3.30;;;2.70;;
77322;SDS011;66384;51.052;9.850;2023-08-17T11:39:02;3.00;;;2.50;;
77322;SDS011;66384;51.052;9.850;2023-08-17T11:41:38;2.50;;;1.90;;
77322;SDS011;66384;51.052;9.850;2023-08-17T11:44:10;3.00;;;2.50;;
77322;SDS011;66384;51.052;9.850;2023-08-17T11:46:43;4.20;;;2.60;;
77322;SDS011;66384;51.052;9.850;2023-08-17T11:49:16;3.10;;;2.60;;
77322;SDS011;66384;51.052;9.850;2023-08-17T11:51:48;4.00;;;2.60;;
77322;SDS011;66384;51.052;9.850;2023-08-17T11:54:20;4.00;;;2.50;;
77322;SDS011;66384;51.052;9.850;2023-08-17T11:56:52;4.20;;;2.50;;
77322;SDS011;66384;51.052;9.850;2023-08-17T11:59:24;4.90;;;4.00;;
77322;SDS011;66384;51.052;9.850;2023-08-17T12:01:57;3.80;;;3.00;;
77322;SDS011;66384;51.052;9.850;2023-08-17T12:04:29;3.60;;;3.20;;
77322;SDS011;66384;51.052;9.850;2023-08-17T12:07:01;4.40;;;3.80;;
77322;SDS011;66384;51.052;9.850;2023-08-17T12:09:33;6.10;;;3.00;;
77322;SDS011;66384;51.052;9.850;2023-08-17T12:12:06;3.80;;;2.90;;
77322;SDS011;66384;51.052;9.850;2023-08-17T12:14:42;2.80;;;2.60;;
77322;SDS011;66384;51.052;9.850;2023-08-17T12:17:15;3.20;;;2.70;;
77322;SDS011;66384;51.052;9.850;2023-08-17T12:19:49;4.10;;;2.60;;
77322;SDS011;66384;51.052;9.850;2023-08-17T12:22:24;4.10;;;3.60;;
77322;SDS011;66384;51.052;9.850;2023-08-17T12:24:57;3.70;;;2.70;;
77322;SDS011;66384;51.052;9.850;2023-08-17T12:27:29;6.80;;;5.90;;
77322;SDS011;66384;51.052;9.850;2023-08-17T12:30:02;4.20;;;3.10;;
77322;SDS011;66384;51.052;9.850;2023-08-17T12:32:34;3.80;;;2.80;;
77322;SDS011;66384;51.052;9.850;2023-08-17T12:35:07;3.30;;;2.80;;
77322;SDS011;66384;51.052;9.850;2023-08-17T12:37:39;4.00;;;2.90;;
77322;SDS011;66384;51.052;9.850;2023-08-17T12:40:11;3.90;;;2.50;;
77322;SDS011;66384;51.052;9.850;2023-08-17T12:42:42;5.40;;;3.00;;
77322;SDS011;66384;51.052;9.850;2023-08-17T12:45:14;4.10;;;3.10;;
77322;SDS011;66384;51.052;9.850;2023-08-17T12:47:46;7.00;;;3.80;;
77322;SDS011;66384;51.052;9.850;2023-08-17T12:50:18;3.40;;;2.90;;
77322;SDS011;66384;51.052;9.850;2023-08-17T12:52:50;4.30;;;3.90;;
77322;SDS011;66384;51.052;9.850;2023-08-17T12:55:21;4.20;;;2.80;;
77322;SDS011;66384;51.052;9.850;2023-08-17T12:57:53;4.60;;;4.20;;
77322;SDS011;66384;51.052;9.850;2023-08-17T13:00:29;4.10;;;2.90;;
77322;SDS011;66384;51.052;9.850;2023-08-17T13:03:02;3.50;;;2.70;;
77322;SDS011;66384;51.052;9.850;2023-08-17T13:05:34;3.60;;;2.90;;
77322;SDS011;66384;51.052;9.850;2023-08-17T13:08:09;2.80;;;2.60;;
77322;SDS011;66384;51.052;9.850;2023-08-17T13:10:40;3.40;;;2.40;;
77322;SDS011;66384;51.052;9.850;2023-08-17T13:13:12;5.10;;;2.50;;
77322;SDS011;66384;51.052;9.850;2023-08-17T13:15:44;3.70;;;3.00;;
77322;SDS011;66384;51.052;9.850;2023-08-17T13:18:16;3.60;;;2.70;;
77322;SDS011;66384;51.052;9.850;2023-08-17T13:20:49;3.00;;;2.70;;
77322;SDS011;66384;51.052;9.850;2023-08-17T13:23:21;4.70;;;3.80;;
77322;SDS011;66384;51.052;9.850;2023-08-17T13:25:53;3.80;;;3.40;;
77322;SDS011;66384;51.052;9.850;2023-08-17T13:28:26;4.30;;;3.30;;
77322;SDS011;66384;51.052;9.850;2023-08-17T13:30:58;3.70;;;2.90;;
77322;SDS011;66384;51.052;9.850;2023-08-17T13:33:51;4.10;;;3.20;;
77322;SDS011;66384;51.052;9.850;2023-08-17T13:36:24;3.50;;;3.10;;
77322;SDS011;66384;51.052;9.850;2023-08-17T13:38:58;4.30;;;3.10;;
77322;SDS011;66384;51.052;9.850;2023-08-17T13:41:31;3.50;;;2.80;;
77322;SDS011;66384;51.052;9.850;2023-08-17T13:44:05;4.10;;;3.00;;
77322;SDS011;66384;51.052;9.850;2023-08-17T13:46:39;11.30;;;2.70;;
77322;SDS011;66384;51.052;9.850;2023-08-17T13:49:14;4.40;;;2.90;;
77322;SDS011;66384;51.052;9.850;2023-08-17T13:51:52;3.50;;;2.80;;
77322;SDS011;66384;51.052;9.850;2023-08-17T14:01:36;2.50;;;2.30;;
77322;SDS011;66384;51.052;9.850;2023-08-17T14:04:07;4.70;;;3.60;;
77322;SDS011;66384;51.052;9.850;2023-08-17T14:06:41;3.40;;;2.70;;
77322;SDS011;66384;51.052;9.850;2023-08-17T14:09:12;3.30;;;2.40;;
77322;SDS011;66384;51.052;9.850;2023-08-17T14:11:44;3.50;;;2.60;;
77322;SDS011;66384;51.052;9.850;2023-08-17T14:14:16;3.90;;;3.00;;
77322;SDS011;66384;51.052;9.850;2023-08-17T14:16:48;3.50;;;2.50;;
77322;SDS011;66384;51.052;9.850;2023-08-17T14:19:19;5.20;;;4.20;;
77322;SDS011;66384;51.052;9.850;2023-08-17T14:21:51;3.30;;;2.70;;
77322;SDS011;66384;51.052;9.850;2023-08-17T14:24:23;2.70;;;2.50;;
77322;SDS011;66384;51.052;9.850;2023-08-17T14:26:55;7.20;;;6.40;;
77322;SDS011;66384;51.052;9.850;2023-08-17T14:29:27;5.60;;;4.00;;
77322;SDS011;66384;51.052;9.850;2023-08-17T14:31:59;2.90;;;2.60;;
77322;SDS011;66384;51.052;9.850;2023-08-17T14:34:31;2.80;;;2.40;;
77322;SDS011;66384;51.052;9.850;2023-08-17T14:37:03;3.30;;;2.80;;
77322;SDS011;66384;51.052;9.850;2023-08-17T14:39:36;3.80;;;2.70;;
77322;SDS011;66384;51.052;9.850;2023-08-17T14:42:08;2.80;;;2.10;;
77322;SDS011;66384;51.052;9.850;2023-08-17T14:44:41;4.70;;;2.80;;
77322;SDS011;66384;51.052;9.850;2023-08-17T14:47:13;2.50;;;2.20;;
77322;SDS011;66384;51.052;9.850;2023-08-17T14:49:49;3.50;;;2.30;;
77322;SDS011;66384;51.052;9.850;2023-08-17T14:52:22;3.20;;;2.90;;
77322;SDS011;66384;51.052;9.850;2023-08-17T14:55:02;3.80;;;3.40;;
77322;SDS011;66384;51.052;9.850;2023-08-17T14:57:35;6.20;;;3.30;;
77322;SDS011;66384;51.052;9.850;2023-08-17T15:00:09;6.00;;;3.10;;
77322;SDS011;66384;51.052;9.850;2023-08-17T15:02:46;3.20;;;2.80;;
77322;SDS011;66384;51.052;9.850;2023-08-17T15:05:19;2.80;;;2.50;;
77322;SDS011;66384;51.052;9.850;2023-08-17T15:07:57;3.40;;;2.70;;
77322;SDS011;66384;51.052;9.850;2023-08-17T15:10:30;3.40;;;2.70;;
77322;SDS011;66384;51.052;9.850;2023-08-17T15:13:04;3.50;;;2.60;;
77322;SDS011;66384;51.052;9.850;2023-08-17T15:15:40;3.40;;;2.70;;
77322;SDS011;66384;51.052;9.850;2023-08-17T15:18:13;2.60;;;1.90;;
77322;SDS011;66384;51.052;9.850;2023-08-17T15:20:45;3.40;;;3.10;;
77322;SDS011;66384;51.052;9.850;2023-08-17T15:23:18;2.60;;;2.40;;
77322;SDS011;66384;51.052;9.850;2023-08-17T15:25:51;2.90;;;2.60;;
77322;SDS011;66384;51.052;9.850;2023-08-17T15:28:24;3.40;;;2.60;;
77322;SDS011;66384;51.052;9.850;2023-08-17T15:31:03;3.00;;;2.20;;
77322;SDS011;66384;51.052;9.850;2023-08-17T15:33:38;3.00;;;2.60;;
77322;SDS011;66384;51.052;9.850;2023-08-17T15:36:10;3.90;;;3.40;;